Time;durP1;ratioP1;P1;durP2;ratioP2;P2;SDS_P1;SDS_P2;PMS_P1;PMS_P2;Temp;Humidity;BMP_temperature;BMP_pressure;BME280_temperature;BME280_humidity;BME280_pressure;Samples;Min_cycle;Max_cycle;Signal;HPM_P1;HPM_P2
2022/03/02 00:02:23;;;;;;;16.88;11.70;;;0.70;1.00;;;;;;4937458;29;20255;-83
2022/03/02 00:04:50;;;;;;;16.95;12.98;;;0.70;99.90;;;;;;4936927;29;20214;-83
2022/03/02 00:07:16;;;;;;;20.35;13.20;;;1.50;49.10;;;;;;4938140;29;20255;-84
2022/03/02 00:09:43;;;;;;;21.85;13.13;;;0.90;99.90;;;;;;4937536;29;20215;-84
2022/03/02 00:12:10;;;;;;;19.05;13.52;;;0.90;1.00;;;;;;4937734;29;20227;-84
2022/03/02 00:14:37;;;;;;;27.40;12.88;;;1.00;1.00;;;;;;4937335;29;20242;-84
2022/03/02 00:17:05;;;;;;;23.75;13.23;;;0.90;99.90;;;;;;4937065;29;20202;-83
2022/03/02 00:19:32;;;;;;;24.05;12.85;;;0.90;99.90;;;;;;4937591;29;20236;-83
2022/03/02 00:21:58;;;;;;;21.13;12.60;;;0.80;99.90;;;;;;4938051;29;20228;-84
2022/03/02 00:24:25;;;;;;;19.48;12.80;;;0.80;99.90;;;;;;4937312;29;20211;-85
2022/03/02 00:26:51;;;;;;;22.35;11.70;;;0.80;99.90;;;;;;4935050;29;20239;-84
2022/03/02 00:29:18;;;;;;;23.08;13.50;;;0.70;99.90;;;;;;4931786;29;20204;-83
2022/03/02 00:31:45;;;;;;;20.23;13.27;;;0.70;99.90;;;;;;4929143;29;20239;-83
2022/03/02 00:34:13;;;;;;;22.60;14.30;;;0.80;99.90;;;;;;4929787;29;20211;-84
2022/03/02 00:36:39;;;;;;;25.20;14.27;;;1.00;1.00;;;;;;4937038;29;20219;-82
2022/03/02 00:39:06;;;;;;;26.38;15.45;;;0.90;1.00;;;;;;4934965;29;20236;-83
2022/03/02 00:41:33;;;;;;;22.98;14.02;;;0.90;99.90;;;;;;4933497;29;20228;-83
2022/03/02 00:44:00;;;;;;;21.55;13.90;;;0.90;99.90;;;;;;4933140;29;20222;-82
2022/03/02 00:46:29;;;;;;;18.23;13.52;;;0.70;1.00;;;;;;4931891;29;20215;-83
2022/03/02 00:48:56;;;;;;;20.17;13.70;;;0.70;1.00;;;;;;4931576;29;20237;-83
2022/03/02 00:51:25;;;;;;;24.02;13.77;;;0.70;99.90;;;;;;4931901;29;20228;-82
2022/03/02 00:53:53;;;;;;;21.52;14.60;;;0.70;99.90;;;;;;4932966;29;20211;-82
2022/03/02 00:56:20;;;;;;;19.08;15.73;;;0.70;1.00;;;;;;4930071;29;20208;-83
2022/03/02 00:58:46;;;;;;;19.58;14.75;;;0.70;99.90;;;;;;4933357;29;20559;-82
2022/03/02 01:01:13;;;;;;;20.70;14.40;;;0.90;99.90;;;;;;4930587;29;20239;-83
2022/03/02 01:03:39;;;;;;;25.33;15.45;;;0.80;1.00;;;;;;4931532;29;20208;-83
2022/03/02 01:06:06;;;;;;;18.20;13.10;;;0.70;1.00;;;;;;4942949;28;20199;-81
2022/03/02 01:08:34;;;;;;;20.35;13.65;;;0.70;1.00;;;;;;4944095;28;20243;-81
2022/03/02 01:11:01;;;;;;;22.88;15.18;;;0.80;1.00;;;;;;4943938;28;20215;-82
2022/03/02 01:13:28;;;;;;;21.17;15.40;;;0.70;1.00;;;;;;4936295;29;20196;-85
2022/03/02 01:15:54;;;;;;;19.63;14.10;;;0.70;1.00;;;;;;4930443;29;20219;-84
2022/03/02 01:18:21;;;;;;;27.60;14.80;;;0.70;1.00;;;;;;4929669;29;20207;-84
2022/03/02 01:20:47;;;;;;;24.58;16.75;;;0.80;99.90;;;;;;4930338;29;20231;-84
2022/03/02 01:23:14;;;;;;;23.80;16.33;;;0.70;1.00;;;;;;4929468;29;20633;-84
2022/03/02 01:25:42;;;;;;;23.35;16.25;;;0.70;1.00;;;;;;4931010;29;20713;-84
2022/03/02 01:28:09;;;;;;;21.10;14.82;;;0.60;99.90;;;;;;4930668;29;20377;-84
2022/03/02 01:30:35;;;;;;;21.40;15.18;;;0.50;1.00;;;;;;4930203;29;20279;-84
2022/03/02 01:33:02;;;;;;;21.23;15.95;;;0.50;52.20;;;;;;4929922;29;20188;-84
2022/03/02 01:35:28;;;;;;;25.95;16.45;;;0.80;1.00;;;;;;4928371;29;20215;-83
2022/03/02 01:37:55;;;;;;;19.13;13.90;;;0.60;99.90;;;;;;4927945;29;20207;-83
2022/03/02 01:40:22;;;;;;;21.88;14.98;;;0.40;1.00;;;;;;4926030;29;20687;-84
2022/03/02 01:56:19;;;;;;;28.38;15.02;;;0.40;1.00;;;;;;4929794;29;20277;-83
2022/03/02 01:58:47;;;;;;;23.10;14.98;;;1.30;1.00;;;;;;4930020;29;20224;-83
2022/03/02 02:01:15;;;;;;;20.45;14.40;;;0.30;99.90;;;;;;4926766;29;20235;-83
2022/03/02 02:03:42;;;;;;;20.73;14.15;;;0.40;99.90;;;;;;4929221;29;20208;-83
2022/03/02 02:06:09;;;;;;;29.35;16.65;;;0.50;1.00;;;;;;4928936;29;20211;-83
2022/03/02 02:08:36;;;;;;;20.52;14.55;;;0.30;15.80;;;;;;4929544;29;20224;-83
2022/03/02 02:11:04;;;;;;;24.00;14.55;;;0.30;1.00;;;;;;4929738;29;20234;-83
2022/03/02 02:13:34;;;;;;;22.70;15.40;;;0.30;1.00;;;;;;4930325;29;20208;-85
2022/03/02 02:16:02;;;;;;;17.52;13.15;;;0.30;99.90;;;;;;4931049;29;20214;-84
2022/03/02 02:18:29;;;;;;;21.92;14.75;;;0.10;1.00;;;;;;4930507;29;20272;-84
2022/03/02 02:21:01;;;;;;;20.20;15.13;;;0.20;99.90;;;;;;4931196;29;20223;-83
2022/03/02 02:23:28;;;;;;;20.80;14.15;;;0.20;99.90;;;;;;4937612;29;20203;-82
2022/03/02 02:25:54;;;;;;;18.63;13.90;;;0.10;99.90;;;;;;4940754;29;20195;-82
2022/03/02 02:28:24;;;;;;;21.73;14.07;;;0.10;99.90;;;;;;4923340;29;20234;-82
2022/03/02 02:30:53;;;;;;;21.15;14.00;;;0.20;1.00;;;;;;4938801;29;20251;-83
2022/03/02 02:33:20;;;;;;;24.25;14.35;;;0.20;99.90;;;;;;4939994;29;20180;-84
2022/03/02 02:35:46;;;;;;;19.70;14.82;;;0.20;99.90;;;;;;4934084;29;20211;-84
2022/03/02 02:38:16;;;;;;;20.05;14.38;;;0.20;1.00;;;;;;4930762;29;20659;-84
2022/03/02 02:40:43;;;;;;;20.77;14.45;;;0.10;1.00;;;;;;4927902;29;20231;-83
2022/03/02 02:43:10;;;;;;;21.50;15.75;;;0.30;1.00;;;;;;4933239;29;20212;-83
2022/03/02 02:45:37;;;;;;;25.70;14.60;;;0.30;1.00;;;;;;4934342;29;20365;-83
2022/03/02 02:48:04;;;;;;;19.98;14.00;;;0.40;1.00;;;;;;4934847;29;20252;-84
2022/03/02 02:50:33;;;;;;;19.75;14.63;;;0.30;99.90;;;;;;4935111;29;20204;-84
2022/03/02 02:53:04;;;;;;;24.83;14.82;;;0.40;99.90;;;;;;4930404;29;20291;-84
2022/03/02 02:55:32;;;;;;;20.85;14.90;;;0.50;13.30;;;;;;4924254;29;20325;-83
2022/03/02 02:57:59;;;;;;;18.90;13.30;;;0.40;99.90;;;;;;4925215;29;20232;-83
2022/03/02 03:00:28;;;;;;;18.55;13.38;;;0.30;99.90;;;;;;4928554;29;20682;-83
2022/03/02 03:02:56;;;;;;;24.90;15.15;;;0.40;1.00;;;;;;4928722;29;20208;-83
2022/03/02 03:05:25;;;;;;;19.10;13.18;;;0.50;99.90;;;;;;4929645;29;20204;-83
2022/03/02 03:07:53;;;;;;;23.65;15.18;;;0.30;27.40;;;;;;4930701;29;20674;-83
2022/03/02 03:10:20;;;;;;;22.70;15.48;;;0.40;99.90;;;;;;4928271;29;20291;-83
2022/03/02 03:12:49;;;;;;;22.27;14.73;;;0.50;99.90;;;;;;4927069;29;20203;-83
2022/03/02 03:15:17;;;;;;;18.33;13.88;;;0.60;99.90;;;;;;4927511;29;20208;-83
2022/03/02 03:17:44;;;;;;;20.73;14.10;;;0.50;1.00;;;;;;4926756;29;20204;-83
2022/03/02 03:20:14;;;;;;;19.33;13.80;;;0.50;1.00;;;;;;4927780;29;20207;-81
2022/03/02 03:22:41;;;;;;;20.63;15.05;;;0.50;99.90;;;;;;4929880;29;20294;-83
2022/03/02 03:25:09;;;;;;;21.05;14.23;;;0.50;1.00;;;;;;4927147;29;20211;-82
2022/03/02 03:27:36;;;;;;;25.02;15.40;;;0.40;99.90;;;;;;4925769;29;20224;-84
2022/03/02 03:30:05;;;;;;;24.38;14.50;;;0.40;99.90;;;;;;4926998;29;20224;-83
2022/03/02 03:32:31;;;;;;;21.13;13.93;;;0.40;99.90;;;;;;4926188;29;20232;-83
2022/03/02 03:34:59;;;;;;;20.48;14.95;;;0.50;99.90;;;;;;4935723;28;20199;-83
2022/03/02 03:37:26;;;;;;;25.25;15.35;;;0.30;28.60;;;;;;4941204;28;20207;-82
2022/03/02 03:39:52;;;;;;;23.15;15.38;;;0.30;99.90;;;;;;4941351;28;20215;-81
2022/03/02 03:42:19;;;;;;;28.10;14.00;;;0.30;54.30;;;;;;4941371;28;20216;-83
2022/03/02 03:44:46;;;;;;;20.88;13.30;;;0.40;99.90;;;;;;4936481;28;20203;-84
2022/03/02 03:47:13;;;;;;;20.42;13.63;;;0.40;99.90;;;;;;4931049;29;20275;-84
2022/03/02 03:49:40;;;;;;;21.75;13.65;;;0.40;99.90;;;;;;4934028;29;20222;-83
2022/03/02 03:52:07;;;;;;;22.45;13.85;;;0.40;99.90;;;;;;4939431;29;20227;-83
2022/03/02 03:54:34;;;;;;;22.45;14.75;;;0.40;1.00;;;;;;4938557;29;20203;-84
2022/03/02 03:57:00;;;;;;;25.75;13.82;;;0.70;99.90;;;;;;4937641;29;20203;-83
2022/03/02 03:59:27;;;;;;;22.17;14.55;;;0.30;99.90;;;;;;4933196;29;20203;-84
2022/03/02 04:01:54;;;;;;;22.08;15.77;;;0.30;99.90;;;;;;4927226;29;20266;-85
2022/03/02 04:04:21;;;;;;;21.58;14.65;;;0.30;1.00;;;;;;4927617;29;20204;-83
2022/03/02 04:06:48;;;;;;;18.95;13.98;;;0.30;1.00;;;;;;4933729;29;20216;-84
2022/03/02 04:09:15;;;;;;;23.65;13.88;;;0.30;1.00;;;;;;4934217;29;20231;-84
2022/03/02 04:11:41;;;;;;;20.90;14.85;;;0.10;98.80;;;;;;4936697;29;20231;-84
2022/03/02 04:14:09;;;;;;;24.77;14.80;;;0.30;99.90;;;;;;4936222;29;20216;-85
2022/03/02 04:16:36;;;;;;;23.50;13.73;;;0.30;77.50;;;;;;4935684;29;20302;-85
2022/03/02 04:19:04;;;;;;;24.55;14.77;;;0.20;1.00;;;;;;4936734;29;20203;-84
2022/03/02 04:21:32;;;;;;;29.75;16.00;;;0.20;95.90;;;;;;4935690;29;20279;-84
2022/03/02 04:23:58;;;;;;;26.63;14.35;;;0.20;99.90;;;;;;4936504;29;20219;-85
2022/03/02 04:26:25;;;;;;;24.13;14.98;;;0.30;99.90;;;;;;4936573;29;20204;-84
2022/03/02 04:28:51;;;;;;;24.38;16.83;;;0.20;1.00;;;;;;4936990;29;20219;-84
2022/03/02 04:31:18;;;;;;;24.20;16.67;;;0.20;1.00;;;;;;4939833;29;20290;-83
2022/03/02 04:33:45;;;;;;;32.70;16.00;;;0.20;99.90;;;;;;4942741;29;20227;-84
2022/03/02 04:36:11;;;;;;;22.55;15.43;;;0.10;99.90;;;;;;4939900;29;20222;-85
2022/03/02 04:38:40;;;;;;;26.52;15.88;;;0.10;99.90;;;;;;4936231;29;20212;-85
2022/03/02 04:41:06;;;;;;;21.40;14.35;;;0.20;1.00;;;;;;4935857;29;20227;-83
2022/03/02 04:43:33;;;;;;;24.25;15.23;;;0.70;75.50;;;;;;4936609;29;20309;-84
2022/03/02 04:46:00;;;;;;;24.85;16.25;;;0.40;1.00;;;;;;4936871;29;20208;-83
2022/03/02 04:48:26;;;;;;;28.77;19.15;;;0.40;1.00;;;;;;4931037;29;20289;-84
2022/03/02 04:50:53;;;;;;;26.35;17.48;;;0.40;1.00;;;;;;4940206;29;20227;-84
2022/03/02 04:53:23;;;;;;;30.55;17.63;;;0.30;99.90;;;;;;4940683;29;20207;-84
2022/03/02 04:55:52;;;;;;;21.30;15.05;;;0.40;99.90;;;;;;4941218;29;20230;-83
2022/03/02 04:58:19;;;;;;;22.38;16.88;;;0.40;74.40;;;;;;4936910;29;20204;-84
2022/03/02 05:00:46;;;;;;;25.20;16.13;;;0.60;99.90;;;;;;4940292;29;20219;-84
2022/03/02 05:03:12;;;;;;;25.10;16.90;;;0.20;4.10;;;;;;4936358;29;20212;-85
2022/03/02 05:05:39;;;;;;;27.27;15.43;;;0.20;1.00;;;;;;4933164;29;20207;-85
2022/03/02 05:08:07;;;;;;;24.10;14.85;;;0.20;1.00;;;;;;4934130;29;20223;-83
2022/03/02 05:10:34;;;;;;;26.85;16.88;;;0.70;99.90;;;;;;4935019;29;20227;-84
2022/03/02 05:13:02;;;;;;;27.55;16.88;;;0.80;99.90;;;;;;4934557;29;20207;-85
2022/03/02 05:15:30;;;;;;;25.08;15.95;;;0.20;99.90;;;;;;4934926;29;20208;-85
2022/03/02 05:17:57;;;;;;;27.88;16.58;;;0.00;99.90;;;;;;4934896;29;20236;-85
2022/03/02 05:20:24;;;;;;;27.73;16.10;;;0.20;99.90;;;;;;4934274;29;20211;-84
2022/03/02 05:22:50;;;;;;;25.80;16.08;;;0.30;99.90;;;;;;4934587;29;20208;-84
2022/03/02 05:25:17;;;;;;;34.40;18.88;;;0.40;99.90;;;;;;4935124;29;20218;-84
2022/03/02 05:27:45;;;;;;;26.42;15.68;;;0.50;99.90;;;;;;4935192;29;20210;-83
2022/03/02 05:30:14;;;;;;;28.23;16.63;;;0.40;99.90;;;;;;4935428;29;20271;-84
2022/03/02 05:32:40;;;;;;;24.98;16.55;;;0.50;99.90;;;;;;4935120;29;20218;-84
2022/03/02 05:35:08;;;;;;;29.35;17.65;;;0.50;99.90;;;;;;4935260;29;20455;-84
2022/03/02 05:37:35;;;;;;;29.73;17.45;;;0.40;99.90;;;;;;4934541;29;20236;-85
2022/03/02 05:40:03;;;;;;;29.08;17.23;;;0.30;99.90;;;;;;4934572;29;20208;-84
2022/03/02 05:42:29;;;;;;;28.05;16.63;;;0.20;99.90;;;;;;4933581;29;20235;-85
2022/03/02 05:44:56;;;;;;;27.38;16.73;;;0.30;99.90;;;;;;4935489;29;20192;-84
2022/03/02 05:47:24;;;;;;;27.75;18.15;;;0.30;99.90;;;;;;4934756;29;20204;-84
2022/03/02 05:49:51;;;;;;;26.58;16.63;;;0.20;99.90;;;;;;4934793;29;20231;-84
2022/03/02 05:52:18;;;;;;;29.10;18.05;;;0.30;99.90;;;;;;4934465;29;20242;-85
2022/03/02 05:54:45;;;;;;;22.83;15.85;;;0.30;99.90;;;;;;4934495;29;20214;-84
2022/03/02 05:57:12;;;;;;;26.10;16.88;;;0.30;99.90;;;;;;4933997;29;20560;-85
2022/03/02 05:59:38;;;;;;;29.23;16.33;;;0.40;99.90;;;;;;4933963;29;20207;-84
2022/03/02 06:02:05;;;;;;;23.88;15.38;;;0.40;99.90;;;;;;4933441;29;20228;-84
2022/03/02 06:04:33;;;;;;;25.33;15.52;;;-0.10;99.90;;;;;;4933240;29;20212;-84
2022/03/02 06:06:59;;;;;;;26.33;15.82;;;0.30;99.90;;;;;;4933236;29;20271;-83
2022/03/02 06:09:26;;;;;;;30.17;20.50;;;0.40;99.90;;;;;;4932576;29;20230;-82
2022/03/02 06:11:54;;;;;;;24.92;16.45;;;0.20;99.90;;;;;;4931620;29;20224;-84
2022/03/02 06:14:21;;;;;;;25.58;16.05;;;0.20;99.90;;;;;;4932285;29;20659;-83
2022/03/02 06:16:48;;;;;;;33.58;17.77;;;0.30;99.90;;;;;;4936404;28;20196;-82
2022/03/02 06:19:15;;;;;;;25.23;18.95;;;0.30;99.90;;;;;;4942407;29;20235;-83
2022/03/02 06:21:44;;;;;;;28.15;18.92;;;0.30;99.90;;;;;;4942399;28;20247;-82
2022/03/02 06:24:14;;;;;;;34.40;19.55;;;0.60;99.90;;;;;;4941910;28;20210;-84
2022/03/02 06:26:41;;;;;;;28.65;19.15;;;0.50;99.90;;;;;;4939524;29;20628;-84
2022/03/02 06:29:08;;;;;;;32.80;19.58;;;0.50;99.90;;;;;;4939667;29;20223;-84
2022/03/02 06:31:34;;;;;;;24.58;17.10;;;0.40;99.90;;;;;;4939071;29;20238;-82
2022/03/02 06:34:02;;;;;;;33.70;20.17;;;0.40;99.90;;;;;;4936468;29;20730;-83
2022/03/02 06:36:28;;;;;;;33.00;21.00;;;0.70;99.90;;;;;;4936956;29;20584;-83
2022/03/02 06:38:56;;;;;;;30.15;21.02;;;0.60;99.90;;;;;;4936756;29;20225;-84
2022/03/02 06:41:29;;;;;;;33.65;20.33;;;0.70;99.90;;;;;;4937779;29;20251;-84
2022/03/02 06:44:01;;;;;;;30.38;20.25;;;0.70;99.90;;;;;;4939144;29;20243;-83
2022/03/02 06:46:32;;;;;;;30.52;20.13;;;0.70;99.90;;;;;;4938664;29;20251;-84
2022/03/02 06:49:06;;;;;;;31.15;20.40;;;0.70;99.90;;;;;;4935947;29;20218;-83
2022/03/02 06:51:33;;;;;;;31.70;20.80;;;0.70;99.90;;;;;;4937829;29;20228;-85
2022/03/02 06:54:04;;;;;;;32.15;20.02;;;0.70;99.90;;;;;;4935158;29;20212;-84
2022/03/02 06:56:39;;;;;;;33.83;22.45;;;0.90;99.90;;;;;;4934809;29;20255;-84
2022/03/02 06:59:11;;;;;;;31.55;19.65;;;1.10;99.90;;;;;;4934766;29;20199;-84
2022/03/02 07:01:43;;;;;;;29.73;20.40;;;0.90;99.90;;;;;;4934927;29;20227;-85
2022/03/02 07:04:13;;;;;;;29.35;20.02;;;0.90;99.90;;;;;;4933685;29;20192;-84
2022/03/02 07:06:46;;;;;;;35.20;20.40;;;1.10;99.90;;;;;;4933024;29;20252;-85
2022/03/02 07:09:16;;;;;;;36.58;20.73;;;1.00;99.90;;;;;;4934186;29;20215;-83
2022/03/02 07:11:44;;;;;;;38.58;22.52;;;1.30;99.90;;;;;;4933831;29;20235;-83
2022/03/02 07:14:15;;;;;;;35.83;21.65;;;0.80;99.90;;;;;;4932601;29;20199;-84
2022/03/02 07:16:43;;;;;;;33.63;21.95;;;0.80;99.90;;;;;;4933096;29;20199;-84
2022/03/02 07:19:09;;;;;;;40.40;23.40;;;1.00;99.90;;;;;;4932269;29;20204;-84
2022/03/02 07:21:40;;;;;;;39.42;23.92;;;0.90;99.90;;;;;;4931121;29;20227;-83
2022/03/02 07:24:13;;;;;;;37.38;20.48;;;1.10;99.90;;;;;;4930921;29;20196;-84
2022/03/02 07:26:44;;;;;;;31.77;20.90;;;1.10;99.90;;;;;;4931517;29;20652;-83
2022/03/02 07:29:12;;;;;;;35.30;21.63;;;1.00;99.90;;;;;;4930154;29;20216;-83
2022/03/02 07:31:39;;;;;;;41.95;23.55;;;1.00;99.90;;;;;;4930691;29;20240;-85
2022/03/02 07:34:11;;;;;;;40.63;25.30;;;1.00;99.90;;;;;;4930303;29;20278;-84
2022/03/02 07:36:40;;;;;;;47.85;23.80;;;0.90;99.90;;;;;;4930017;29;20568;-83
2022/03/02 07:39:07;;;;;;;31.42;23.40;;;0.90;99.90;;;;;;4930263;29;20200;-83
2022/03/02 07:41:33;;;;;;;47.45;25.95;;;0.90;99.90;;;;;;4930609;29;20235;-83
2022/03/02 07:44:02;;;;;;;38.15;23.40;;;1.00;99.90;;;;;;4929717;29;20208;-84
2022/03/02 07:46:29;;;;;;;36.25;22.85;;;;;;;;;;4929611;29;20219;-84
2022/03/02 07:48:55;;;;;;;43.38;27.65;;;0.20;99.90;;;;;;4929325;29;20227;-83
2022/03/02 07:51:23;;;;;;;39.22;24.48;;;1.10;99.90;;;;;;4930753;29;20223;-84
2022/03/02 07:53:52;;;;;;;43.95;26.27;;;1.20;99.90;;;;;;4932381;29;20234;-85
2022/03/02 07:56:19;;;;;;;43.50;26.80;;;1.30;99.90;;;;;;4930844;29;20207;-85
2022/03/02 07:58:46;;;;;;;42.70;27.90;;;1.20;99.90;;;;;;4931506;29;20203;-83
2022/03/02 08:01:17;;;;;;;52.20;28.58;;;1.40;99.90;;;;;;4932153;29;20235;-85
2022/03/02 08:03:45;;;;;;;40.40;26.95;;;1.50;99.90;;;;;;4932029;29;20631;-83
2022/03/02 08:06:13;;;;;;;49.67;28.98;;;1.60;99.90;;;;;;4931134;29;20207;-84
2022/03/02 08:08:41;;;;;;;53.80;29.50;;;1.60;99.90;;;;;;4931320;29;20204;-83
2022/03/02 08:11:07;;;;;;;48.22;28.02;;;1.70;99.90;;;;;;4931792;29;20693;-83
2022/03/02 08:17:05;;;;;;;41.35;26.20;;;0.60;99.90;;;;;;4911492;29;20280;-83
2022/03/02 08:19:32;;;;;;;42.70;26.40;;;1.80;99.90;;;;;;4930911;29;20240;-84
2022/03/02 08:22:03;;;;;;;36.90;23.95;;;1.80;99.90;;;;;;4931029;29;20235;-84
2022/03/02 08:24:31;;;;;;;41.00;26.30;;;1.90;99.90;;;;;;4930408;29;20196;-84
2022/03/02 08:27:01;;;;;;;43.17;26.33;;;2.10;99.90;;;;;;4927277;29;20208;-85
2022/03/02 08:29:30;;;;;;;37.58;27.52;;;2.10;99.90;;;;;;4930423;29;20223;-85
2022/03/02 08:31:59;;;;;;;41.17;25.70;;;2.20;99.90;;;;;;4926198;29;20330;-85
2022/03/02 08:34:28;;;;;;;37.97;24.48;;;2.10;99.90;;;;;;4929686;29;20215;-83
2022/03/02 08:36:56;;;;;;;41.90;27.15;;;2.20;99.90;;;;;;4931910;29;20219;-82
2022/03/02 08:39:23;;;;;;;40.67;25.33;;;2.10;99.90;;;;;;4938873;28;20207;-84
2022/03/02 08:41:51;;;;;;;41.03;25.55;;;2.20;99.90;;;;;;4929240;29;20255;-83
2022/03/02 08:44:18;;;;;;;39.90;26.77;;;2.20;99.90;;;;;;4928155;29;20211;-83
2022/03/02 08:46:46;;;;;;;44.70;26.20;;;2.30;99.90;;;;;;4928019;29;20218;-85
2022/03/02 08:49:13;;;;;;;38.13;26.85;;;2.50;99.90;;;;;;4928617;29;20241;-82
2022/03/02 08:51:42;;;;;;;43.15;27.10;;;2.70;99.90;;;;;;4925824;29;20283;-83
2022/03/02 08:54:12;;;;;;;39.55;25.13;;;2.70;99.90;;;;;;4925333;29;20211;-84
2022/03/02 08:56:40;;;;;;;41.30;25.10;;;2.80;99.90;;;;;;4931290;29;20199;-85
2022/03/02 08:59:09;;;;;;;48.85;27.25;;;2.90;99.90;;;;;;4940291;28;20203;-82
2022/03/02 09:01:40;;;;;;;43.67;27.15;;;3.10;99.90;;;;;;4943648;28;20227;-82
2022/03/02 09:04:07;;;;;;;40.00;26.70;;;3.20;99.90;;;;;;4943651;28;20204;-83
2022/03/02 09:06:36;;;;;;;40.67;25.58;;;3.30;99.90;;;;;;4938271;29;20204;-83
2022/03/02 09:09:05;;;;;;;40.33;27.20;;;3.20;99.90;;;;;;4927689;29;20212;-83
2022/03/02 09:11:33;;;;;;;43.47;25.35;;;3.30;99.90;;;;;;4929689;29;20275;-84
2022/03/02 09:14:00;;;;;;;40.97;26.77;;;3.20;99.90;;;;;;4930188;29;20307;-83
2022/03/02 09:16:27;;;;;;;35.33;23.88;;;3.40;99.90;;;;;;4938134;29;20215;-83
2022/03/02 09:18:57;;;;;;;41.50;26.13;;;3.30;99.90;;;;;;4940353;29;20211;-83
2022/03/02 09:21:25;;;;;;;36.33;23.17;;;3.40;99.90;;;;;;4935675;29;20228;-84
2022/03/02 09:23:54;;;;;;;39.17;23.33;;;3.40;99.90;;;;;;4932730;29;20247;-84
2022/03/02 09:26:23;;;;;;;36.78;22.73;;;3.40;99.90;;;;;;4932793;29;20228;-85
2022/03/02 09:28:52;;;;;;;37.05;23.52;;;3.50;99.90;;;;;;4939373;29;20236;-84
2022/03/02 09:31:20;;;;;;;34.35;22.73;;;3.60;99.90;;;;;;4939871;29;20220;-83
2022/03/02 09:33:50;;;;;;;35.97;22.55;;;3.50;99.90;;;;;;4932005;29;20294;-87
2022/03/02 09:36:21;;;;;;;38.72;24.17;;;3.50;99.90;;;;;;4930765;29;20208;-84
2022/03/02 09:38:50;;;;;;;38.30;22.80;;;3.70;99.90;;;;;;4932094;29;20203;-84
2022/03/02 09:41:24;;;;;;;28.23;21.33;;;3.80;99.90;;;;;;4933397;28;20228;-85
2022/03/02 09:43:57;;;;;;;36.47;23.52;;;3.70;99.90;;;;;;4933889;28;20195;-82
2022/03/02 09:46:31;;;;;;;37.08;21.85;;;3.70;99.90;;;;;;4925424;29;20196;-84
2022/03/02 09:49:08;;;;;;;37.47;21.85;;;3.90;99.90;;;;;;4926732;29;20492;-84
2022/03/02 09:51:37;;;;;;;29.95;21.70;;;4.10;99.90;;;;;;4928062;29;20227;-82
2022/03/02 09:54:05;;;;;;;44.88;22.88;;;4.00;99.90;;;;;;4928380;29;20219;-84
2022/03/02 09:56:35;;;;;;;33.78;20.90;;;4.00;99.90;;;;;;4930686;29;20207;-84
2022/03/02 09:59:06;;;;;;;30.73;20.58;;;4.00;99.90;;;;;;4931013;29;20199;-85
2022/03/02 10:01:35;;;;;;;31.70;19.10;;;4.00;99.90;;;;;;4931568;29;20227;-85
2022/03/02 10:04:17;;;;;;;34.35;20.40;;;4.00;99.90;;;;;;4929921;29;20208;-83
2022/03/02 10:06:45;;;;;;;32.22;20.52;;;3.90;99.90;;;;;;4931336;29;20240;-85
2022/03/02 10:09:13;;;;;;;31.30;19.95;;;3.90;99.90;;;;;;4930415;29;20215;-83
2022/03/02 10:11:42;;;;;;;36.42;22.10;;;4.00;99.90;;;;;;4932621;29;20238;-85
2022/03/02 10:14:11;;;;;;;33.60;18.63;;;4.20;99.90;;;;;;4931781;29;20211;-83
2022/03/02 10:16:44;;;;;;;31.40;19.65;;;4.30;99.90;;;;;;4931798;29;20211;-84
2022/03/02 10:19:21;;;;;;;32.28;20.55;;;4.20;99.90;;;;;;4931264;29;20192;-84
2022/03/02 10:22:01;;;;;;;40.38;22.52;;;4.20;99.90;;;;;;4931559;29;20235;-85
2022/03/02 10:24:31;;;;;;;31.38;19.83;;;4.20;99.90;;;;;;4931600;29;20196;-84
2022/03/02 10:27:05;;;;;;;32.95;18.77;;;4.30;99.90;;;;;;4931501;29;20211;-84
2022/03/02 10:29:49;;;;;;;29.23;19.73;;;4.30;99.90;;;;;;4930712;29;20210;-84
2022/03/02 10:32:18;;;;;;;24.27;18.02;;;4.50;99.90;;;;;;4930436;29;20247;-83
2022/03/02 10:34:50;;;;;;;35.03;19.85;;;4.70;99.90;;;;;;4930227;29;20236;-85
2022/03/02 10:37:35;;;;;;;31.60;19.25;;;4.70;99.90;;;;;;4930691;29;20215;-84
2022/03/02 10:40:09;;;;;;;39.90;20.80;;;5.10;99.90;;;;;;4932150;29;20314;-84
2022/03/02 10:42:39;;;;;;;33.33;20.23;;;5.10;99.90;;;;;;4934274;29;20237;-84
2022/03/02 10:45:10;;;;;;;28.27;19.55;;;5.50;99.90;;;;;;4933925;29;20279;-83
2022/03/02 10:47:41;;;;;;;30.65;20.65;;;5.70;99.90;;;;;;4934954;29;20180;-83
2022/03/02 10:50:09;;;;;;;33.63;19.92;;;5.40;99.90;;;;;;4938484;29;20215;-84
2022/03/02 10:52:38;;;;;;;33.25;19.65;;;5.20;99.90;;;;;;4939346;29;20227;-84
2022/03/02 10:55:08;;;;;;;37.15;19.52;;;5.40;99.90;;;;;;4933726;29;20204;-85
2022/03/02 10:57:35;;;;;;;32.15;19.25;;;5.50;99.90;;;;;;4931019;29;20272;-84
2022/03/02 11:00:09;;;;;;;31.60;20.60;;;5.70;99.90;;;;;;4932398;29;20208;-84
2022/03/02 11:02:40;;;;;;;29.13;18.75;;;5.80;99.90;;;;;;4931694;29;20231;-85
2022/03/02 11:05:11;;;;;;;31.75;19.05;;;5.90;99.90;;;;;;4930861;29;20192;-85
2022/03/02 11:07:37;;;;;;;26.92;19.27;;;6.00;99.90;;;;;;4932089;29;20312;-84
2022/03/02 11:10:06;;;;;;;27.98;19.42;;;6.00;99.90;;;;;;4937312;29;20228;-84
2022/03/02 11:12:33;;;;;;;33.70;19.52;;;6.20;99.90;;;;;;4931053;29;20255;-84
2022/03/02 11:15:03;;;;;;;31.38;18.80;;;6.30;99.90;;;;;;4937034;29;20259;-83
2022/03/02 11:17:31;;;;;;;34.22;19.98;;;6.30;99.90;;;;;;4939978;29;20251;-83
2022/03/02 11:19:59;;;;;;;25.90;18.10;;;6.10;99.90;;;;;;4938038;29;20208;-83
2022/03/02 11:22:28;;;;;;;32.08;21.63;;;6.00;99.90;;;;;;4934908;29;20238;-83
2022/03/02 11:24:56;;;;;;;28.15;18.60;;;6.40;99.90;;;;;;4937163;29;20203;-83
2022/03/02 11:27:31;;;;;;;23.45;17.70;;;6.50;99.90;;;;;;4938989;29;20219;-85
2022/03/02 11:30:11;;;;;;;34.92;21.67;;;6.60;99.90;;;;;;4938734;29;20215;-85
2022/03/02 11:32:39;;;;;;;25.67;18.92;;;6.80;99.90;;;;;;4938887;28;20251;-83
2022/03/02 11:35:10;;;;;;;27.30;18.17;;;6.70;99.90;;;;;;4941464;28;20188;-83
2022/03/02 11:37:38;;;;;;;22.10;16.42;;;6.70;99.90;;;;;;4941525;28;20186;-83
2022/03/02 11:40:07;;;;;;;28.13;17.20;;;6.70;99.90;;;;;;4941487;28;20191;-83
2022/03/02 11:42:38;;;;;;;28.70;16.48;;;6.50;99.90;;;;;;4941148;28;20204;-83
2022/03/02 11:45:07;;;;;;;26.65;16.30;;;6.40;99.90;;;;;;4940504;29;20218;-84
2022/03/02 11:47:35;;;;;;;22.25;15.65;;;6.20;99.90;;;;;;4940538;28;20191;-82
2022/03/02 11:50:05;;;;;;;18.67;14.15;;;6.20;99.90;;;;;;4931550;29;20660;-83
2022/03/02 11:52:38;;;;;;;24.83;16.92;;;6.30;99.90;;;;;;4928247;29;20371;-85
2022/03/02 11:55:09;;;;;;;21.25;13.90;;;6.10;99.90;;;;;;4927879;29;20207;-84
2022/03/02 11:57:41;;;;;;;21.60;14.57;;;6.20;99.90;;;;;;4935573;29;20199;-84
2022/03/02 12:00:12;;;;;;;18.40;13.07;;;6.30;99.90;;;;;;4925421;29;20263;-84
2022/03/02 12:02:45;;;;;;;31.52;16.00;;;6.40;99.90;;;;;;4926411;29;20192;-84
2022/03/02 12:05:12;;;;;;;20.33;13.70;;;6.50;99.90;;;;;;4928550;29;20207;-84
2022/03/02 12:07:42;;;;;;;29.83;15.75;;;6.50;99.90;;;;;;4928776;29;20246;-85
2022/03/02 12:10:17;;;;;;;21.98;13.20;;;6.60;99.90;;;;;;4928191;29;20227;-83
2022/03/02 12:12:44;;;;;;;17.30;12.68;;;6.70;99.90;;;;;;4927646;29;20218;-84
2022/03/02 12:15:11;;;;;;;22.58;11.60;;;6.90;99.90;;;;;;4931982;29;20219;-84
2022/03/02 12:17:39;;;;;;;19.48;11.13;;;7.00;99.90;;;;;;4936517;29;20205;-83
2022/03/02 12:20:08;;;;;;;15.70;12.20;;;7.00;99.90;;;;;;4936063;29;20236;-83
2022/03/02 12:22:37;;;;;;;22.17;12.75;;;6.90;99.90;;;;;;4935082;29;20231;-84
2022/03/02 12:25:07;;;;;;;17.05;12.68;;;7.10;99.50;;;;;;4930389;29;20211;-85
2022/03/02 12:27:34;;;;;;;18.10;11.90;;;6.90;99.40;;;;;;4928827;29;20626;-84
2022/03/02 12:30:05;;;;;;;16.92;11.75;;;7.00;99.40;;;;;;4928436;29;20533;-84
2022/03/02 12:32:36;;;;;;;18.38;11.90;;;7.10;95.80;;;;;;5001745;23;20224;-87
2022/03/02 12:35:13;;;;;;;14.15;10.10;;;7.00;92.60;;;;;;4981506;28;20299;-88
2022/03/02 12:37:46;;;;;;;19.67;11.10;;;7.10;99.90;;;;;;4981683;28;20186;-87
2022/03/02 12:40:21;;;;;;;13.10;9.55;;;7.00;99.90;;;;;;4979922;28;20213;-88
2022/03/02 12:42:51;;;;;;;15.68;9.95;;;7.00;89.70;;;;;;4971102;29;20248;-88
2022/03/02 12:45:22;;;;;;;15.45;9.73;;;;;;;;;;4971551;28;20210;-88
2022/03/02 12:47:53;;;;;;;14.20;9.80;;;;;;;;;;4975294;29;20225;-88
2022/03/02 12:51:04;;;;;;;16.50;9.45;;;7.00;89.10;;;;;;4979779;28;20220;-88
2022/03/02 12:54:18;;;;;;;13.02;10.50;;;6.90;81.70;;;;;;4980503;28;20206;-88
2022/03/02 12:59:40;;;;;;;13.50;9.18;;;;;;;;;;4922687;29;20205;-87
2022/03/02 13:02:15;;;;;;;12.43;9.00;;;7.20;99.90;;;;;;4973439;28;20221;-89
2022/03/02 13:11:37;;;;;;;14.13;10.00;;;7.00;84.20;;;;;;4970004;29;20553;-88
2022/03/02 13:17:55;;;;;;;10.43;8.73;;;7.10;92.50;;;;;;4969547;29;20249;-87
2022/03/02 13:24:44;;;;;;;11.07;7.78;;;7.20;96.60;;;;;;4969339;28;20205;-86